Time;durP1;ratioP1;P1;durP2;ratioP2;P2;SDS_P1;SDS_P2;PMS_P1;PMS_P2;Temp;Humidity;BMP_temperature;BMP_pressure;BME280_temperature;BME280_humidity;BME280_pressure;Samples;Min_cycle;Max_cycle;Signal;HPM_P1;HPM_P2
2022/10/07 00:01:49;;;;;;;9.65;1.40;;;11.00;96.20;;;;;;4181608;28;20585;-86
2022/10/07 00:03:50;;;;;;;6.95;0.93;;;11.00;95.90;;;;;;4200428;28;20063;-86
2022/10/07 00:06:05;;;;;;;6.05;0.90;;;11.00;96.30;;;;;;4165956;28;20136;-86
2022/10/07 00:08:09;;;;;;;5.82;1.48;;;10.70;96.00;;;;;;4182380;28;20473;-85
2022/10/07 00:10:10;;;;;;;6.38;0.85;;;10.90;96.30;;;;;;4200414;28;20044;-87
2022/10/07 00:12:12;;;;;;;4.88;1.60;;;10.90;96.40;;;;;;4181812;28;20053;-86
2022/10/07 00:14:13;;;;;;;8.02;1.10;;;11.00;96.40;;;;;;4198436;28;20052;-86
2022/10/07 00:16:21;;;;;;;8.70;1.17;;;11.00;96.40;;;;;;4182082;28;20123;-86
2022/10/07 00:18:22;;;;;;;10.30;1.48;;;11.40;96.30;;;;;;4165318;28;20132;-86
2022/10/07 00:20:22;;;;;;;11.02;1.42;;;10.60;96.50;;;;;;4181991;28;20049;-85
2022/10/07 00:22:23;;;;;;;8.57;1.60;;;10.90;96.50;;;;;;4181764;28;20083;-86
2022/10/07 00:24:24;;;;;;;6.35;1.10;;;10.90;96.70;;;;;;4165395;28;20549;-86
2022/10/07 00:26:28;;;;;;;12.15;2.20;;;11.00;96.70;;;;;;4199382;28;20098;-85
2022/10/07 00:28:29;;;;;;;12.73;1.52;;;11.00;96.50;;;;;;4181457;28;20052;-86
2022/10/07 00:30:30;;;;;;;12.07;2.42;;;10.90;96.80;;;;;;4182707;28;20467;-85
2022/10/07 00:32:31;;;;;;;8.50;1.80;;;10.90;96.60;;;;;;4199838;28;20077;-87
2022/10/07 00:34:32;;;;;;;16.73;1.88;;;11.30;96.90;;;;;;4183163;28;20049;-86
2022/10/07 00:36:36;;;;;;;11.95;1.85;;;11.00;97.10;;;;;;4184655;28;20139;-86
2022/10/07 00:38:38;;;;;;;8.82;1.25;;;10.90;96.50;;;;;;4184936;28;20041;-86
2022/10/07 00:40:41;;;;;;;5.88;1.38;;;10.90;96.50;;;;;;4202758;28;20408;-87
2022/10/07 00:42:42;;;;;;;6.07;1.67;;;10.70;96.70;;;;;;4184338;28;20087;-87
2022/10/07 00:44:44;;;;;;;11.25;1.88;;;10.90;96.60;;;;;;4168751;28;20137;-86
2022/10/07 00:46:45;;;;;;;8.70;1.77;;;10.90;96.50;;;;;;4184643;28;20052;-86
2022/10/07 00:48:46;;;;;;;10.48;1.75;;;10.90;96.70;;;;;;4201302;28;20067;-86
2022/10/07 00:50:51;;;;;;;10.45;2.35;;;10.90;97.00;;;;;;4184468;28;20056;-86
2022/10/07 00:52:58;;;;;;;14.63;1.98;;;10.90;96.80;;;;;;4202565;28;20048;-86
2022/10/07 00:55:03;;;;;;;8.13;1.08;;;10.90;96.70;;;;;;4168832;28;20049;-86
2022/10/07 00:57:04;;;;;;;12.60;2.17;;;11.00;96.70;;;;;;4169494;28;20132;-86
2022/10/07 00:59:05;;;;;;;4.18;1.00;;;10.90;96.90;;;;;;4169475;28;20124;-87
2022/10/07 01:01:07;;;;;;;8.13;1.73;;;10.90;96.80;;;;;;4185972;28;20528;-85
2022/10/07 01:03:08;;;;;;;6.43;1.40;;;10.90;96.70;;;;;;4168548;28;20061;-86
2022/10/07 01:05:11;;;;;;;10.85;1.33;;;10.90;97.20;;;;;;4184544;28;20481;-86
2022/10/07 01:07:12;;;;;;;6.68;1.10;;;10.90;96.80;;;;;;4167978;28;20079;-86
2022/10/07 01:09:13;;;;;;;7.97;1.27;;;10.90;97.00;;;;;;4168375;28;20104;-86
2022/10/07 01:11:51;;;;;;;11.38;1.25;;;10.80;97.10;;;;;;4168207;28;20115;-86
2022/10/07 01:14:15;;;;;;;6.70;1.27;;;10.80;96.90;;;;;;4184791;28;20549;-86
2022/10/07 01:16:29;;;;;;;6.75;1.98;;;10.80;96.90;;;;;;4185719;28;20144;-85
2022/10/07 01:18:48;;;;;;;11.13;2.17;;;10.80;97.10;;;;;;4185946;28;20049;-86
2022/10/07 01:21:07;;;;;;;7.45;1.48;;;10.50;96.80;;;;;;4186724;28;20048;-85
2022/10/07 01:23:38;;;;;;;4.93;1.88;;;10.80;97.20;;;;;;4185434;28;20481;-85
2022/10/07 01:26:04;;;;;;;8.27;1.58;;;10.80;97.10;;;;;;4184999;28;20048;-85
2022/10/07 01:28:14;;;;;;;5.65;1.20;;;10.80;97.00;;;;;;4183419;28;20057;-86
2022/10/07 01:30:17;;;;;;;4.30;1.67;;;11.00;97.00;;;;;;4185051;28;20049;-86
2022/10/07 01:32:38;;;;;;;7.45;1.42;;;10.70;97.00;;;;;;4167439;28;20506;-86
2022/10/07 01:34:42;;;;;;;8.30;2.35;;;10.70;97.30;;;;;;4187795;28;20445;-86
2022/10/07 01:36:49;;;;;;;7.25;2.15;;;10.70;97.20;;;;;;4184983;28;20044;-86
2022/10/07 01:38:55;;;;;;;7.43;1.33;;;10.80;97.30;;;;;;4185677;28;20075;-86
2022/10/07 01:41:20;;;;;;;6.43;1.52;;;10.80;97.30;;;;;;4185124;28;20052;-86
2022/10/07 01:43:22;;;;;;;6.05;1.00;;;10.60;97.30;;;;;;4183845;28;20045;-85
2022/10/07 01:45:25;;;;;;;7.28;1.63;;;10.60;97.30;;;;;;4184429;28;20049;-86
2022/10/07 01:47:27;;;;;;;12.02;2.03;;;10.60;97.40;;;;;;4184137;28;20056;-86
2022/10/07 01:49:28;;;;;;;5.72;1.23;;;10.60;97.10;;;;;;4185287;28;20041;-85
2022/10/07 01:51:32;;;;;;;15.38;2.00;;;10.60;97.20;;;;;;4185086;28;20087;-86
2022/10/07 01:53:53;;;;;;;9.15;1.75;;;10.50;97.20;;;;;;4185064;28;20060;-86
2022/10/07 01:56:03;;;;;;;6.45;1.50;;;10.50;97.40;;;;;;4202288;28;20127;-85
2022/10/07 01:58:43;;;;;;;7.45;1.40;;;10.50;97.70;;;;;;4189212;28;20089;-86
2022/10/07 02:01:21;;;;;;;8.32;2.17;;;10.50;97.60;;;;;;4200922;28;20057;-85
2022/10/07 02:03:36;;;;;;;12.10;1.58;;;10.40;98.10;;;;;;4191887;28;20135;-86
2022/10/07 02:05:47;;;;;;;6.43;1.27;;;10.40;97.70;;;;;;4200485;28;20080;-85
2022/10/07 02:08:28;;;;;;;7.20;1.52;;;10.40;97.80;;;;;;4201086;28;20032;-86
2022/10/07 02:11:03;;;;;;;29.52;2.00;;;10.40;97.90;;;;;;4208782;28;20045;-86
2022/10/07 02:13:42;;;;;;;9.00;1.90;;;10.30;98.60;;;;;;4167264;28;20049;-86
2022/10/07 02:15:50;;;;;;;6.18;1.38;;;10.30;98.00;;;;;;4184097;28;20045;-86
2022/10/07 02:17:57;;;;;;;4.32;1.40;;;10.30;98.00;;;;;;4200829;28;20084;-85
2022/10/07 02:20:03;;;;;;;5.72;1.50;;;10.30;97.90;;;;;;4185023;28;20128;-87
2022/10/07 02:22:06;;;;;;;7.65;1.40;;;10.30;98.10;;;;;;4183183;28;20683;-86
2022/10/07 02:24:11;;;;;;;6.45;1.88;;;10.30;97.90;;;;;;4184565;28;20045;-86
2022/10/07 02:26:15;;;;;;;9.50;1.85;;;10.20;98.20;;;;;;4166595;28;20905;-86
2022/10/07 02:28:20;;;;;;;10.27;2.50;;;10.30;98.30;;;;;;4183468;28;20040;-86
2022/10/07 02:30:23;;;;;;;11.57;2.85;;;10.20;98.40;;;;;;4182958;28;20052;-87
2022/10/07 02:32:29;;;;;;;7.55;1.92;;;10.20;98.60;;;;;;4183519;28;20052;-86
2022/10/07 02:34:33;;;;;;;9.93;1.80;;;10.30;98.60;;;;;;4182262;28;20048;-86
2022/10/07 02:36:39;;;;;;;18.20;1.83;;;9.60;98.40;;;;;;4183946;28;20493;-86
2022/10/07 02:38:40;;;;;;;7.78;1.58;;;10.20;98.70;;;;;;4184112;28;20405;-86
2022/10/07 02:40:53;;;;;;;10.23;2.15;;;10.20;99.20;;;;;;4182708;28;20049;-86
2022/10/07 02:43:10;;;;;;;13.38;2.10;;;8.90;98.50;;;;;;4183561;28;20041;-86
2022/10/07 02:45:18;;;;;;;5.82;1.73;;;10.10;99.10;;;;;;4182815;28;20124;-86
2022/10/07 02:47:37;;;;;;;5.57;1.42;;;10.10;98.80;;;;;;4183495;28;20052;-86
2022/10/07 02:49:40;;;;;;;8.75;2.30;;;10.20;98.70;;;;;;4165505;28;20084;-86
2022/10/07 02:51:54;;;;;;;9.18;1.80;;;10.20;99.20;;;;;;4181629;28;20104;-86
2022/10/07 02:53:56;;;;;;;6.72;1.65;;;10.10;99.30;;;;;;4182590;28;20098;-86
2022/10/07 02:56:00;;;;;;;14.07;2.05;;;10.00;99.20;;;;;;4182639;28;20051;-85
2022/10/07 02:58:13;;;;;;;10.73;1.73;;;10.00;99.10;;;;;;4180222;28;20056;-86
2022/10/07 03:00:15;;;;;;;12.93;2.00;;;10.00;99.40;;;;;;4182533;28;20492;-86
2022/10/07 03:02:41;;;;;;;6.95;1.85;;;10.00;99.50;;;;;;4181278;28;20064;-86
2022/10/07 03:04:43;;;;;;;11.10;1.75;;;10.00;99.30;;;;;;4181590;28;20056;-86
2022/10/07 03:06:44;;;;;;;7.78;2.08;;;10.00;99.90;;;;;;4171751;28;20033;-86
2022/10/07 03:08:46;;;;;;;11.85;1.90;;;9.90;99.60;;;;;;4165763;28;20132;-86
2022/10/07 03:10:48;;;;;;;13.00;2.15;;;9.90;99.80;;;;;;4191111;28;20051;-86
2022/10/07 03:12:49;;;;;;;11.35;2.10;;;9.90;99.80;;;;;;4199419;28;20405;-86
2022/10/07 03:14:51;;;;;;;9.48;1.80;;;10.00;99.90;;;;;;4199638;28;20041;-86
2022/10/07 03:16:53;;;;;;;10.55;2.53;;;9.90;99.90;;;;;;4198580;28;20048;-86
2022/10/07 03:18:57;;;;;;;11.02;1.80;;;9.90;99.90;;;;;;4199591;28;20040;-85
2022/10/07 03:20:59;;;;;;;7.70;2.00;;;9.90;99.90;;;;;;4198525;28;20044;-86
2022/10/07 03:23:00;;;;;;;16.38;2.65;;;9.90;99.90;;;;;;4199183;28;20051;-86
2022/10/07 03:25:01;;;;;;;12.02;1.90;;;9.90;99.90;;;;;;4199620;28;20044;-86
2022/10/07 03:27:07;;;;;;;9.80;2.00;;;9.90;99.90;;;;;;4198675;28;20052;-86
2022/10/07 03:29:12;;;;;;;10.18;2.25;;;9.90;99.90;;;;;;4199714;28;20404;-86
2022/10/07 03:31:14;;;;;;;7.80;2.13;;;8.60;99.90;;;;;;4182057;28;20045;-86
2022/10/07 03:33:16;;;;;;;13.55;3.15;;;9.90;99.90;;;;;;4181439;28;20096;-86
2022/10/07 03:35:17;;;;;;;8.25;1.88;;;9.90;99.90;;;;;;4198085;28;20060;-85
2022/10/07 03:37:18;;;;;;;9.10;2.00;;;9.90;99.90;;;;;;4198591;28;20054;-86
2022/10/07 03:39:19;;;;;;;9.18;1.73;;;9.90;99.90;;;;;;4182143;28;20045;-85
2022/10/07 03:41:21;;;;;;;15.77;2.45;;;10.00;99.90;;;;;;4199650;28;20102;-86
2022/10/07 03:43:22;;;;;;;8.40;1.95;;;9.90;99.90;;;;;;4199991;28;20094;-85
2022/10/07 03:45:23;;;;;;;8.55;2.13;;;9.90;99.90;;;;;;4198157;28;20036;-86
2022/10/07 03:47:26;;;;;;;9.32;2.20;;;9.90;99.90;;;;;;4183546;28;20097;-86
2022/10/07 03:49:27;;;;;;;13.95;3.47;;;9.90;99.90;;;;;;4181949;28;20037;-86
2022/10/07 03:51:29;;;;;;;10.93;2.00;;;9.90;99.90;;;;;;4165083;28;20143;-86
2022/10/07 03:53:31;;;;;;;11.15;1.92;;;9.90;99.90;;;;;;4182127;28;20041;-87
2022/10/07 03:55:31;;;;;;;11.60;2.83;;;9.80;99.90;;;;;;4181883;28;20057;-85
2022/10/07 03:59:55;;;;;;;9.15;2.42;;;9.90;99.90;;;;;;4181695;28;20139;-85
2022/10/07 04:01:56;;;;;;;6.70;2.17;;;9.80;99.90;;;;;;4187114;28;20063;-85
2022/10/07 04:03:59;;;;;;;11.10;2.17;;;9.80;99.90;;;;;;4165106;28;20053;-85
2022/10/07 04:06:02;;;;;;;8.18;1.60;;;9.80;99.90;;;;;;4199356;28;20056;-85
2022/10/07 04:08:06;;;;;;;12.70;2.05;;;9.80;99.90;;;;;;4181119;28;20619;-85
2022/10/07 04:10:08;;;;;;;10.95;2.33;;;9.80;99.90;;;;;;4197802;28;20167;-85
2022/10/07 04:12:09;;;;;;;11.50;2.10;;;10.60;99.90;;;;;;4199047;28;20561;-85
2022/10/07 04:14:09;;;;;;;8.75;2.00;;;9.80;99.90;;;;;;4199136;28;20044;-85
2022/10/07 04:16:11;;;;;;;15.05;2.50;;;9.70;99.90;;;;;;4198894;28;20115;-85
2022/10/07 04:18:13;;;;;;;13.70;3.65;;;9.70;99.90;;;;;;4181661;28;20049;-85
2022/10/07 04:20:15;;;;;;;14.32;3.42;;;9.80;99.90;;;;;;4199093;28;20413;-85
2022/10/07 04:22:16;;;;;;;12.65;2.25;;;9.70;99.90;;;;;;4181380;28;20061;-86
2022/10/07 04:24:17;;;;;;;8.88;2.63;;;9.80;99.90;;;;;;4181171;28;20049;-85
2022/10/07 04:26:19;;;;;;;7.82;1.80;;;9.70;99.90;;;;;;4199026;28;20400;-86
2022/10/07 04:28:22;;;;;;;8.00;1.77;;;9.80;99.90;;;;;;4180770;28;20060;-85
2022/10/07 04:30:26;;;;;;;10.35;1.98;;;9.80;99.90;;;;;;4181333;28;20048;-86
2022/10/07 04:32:27;;;;;;;12.43;2.78;;;9.80;99.90;;;;;;4198964;28;20398;-85
2022/10/07 04:34:28;;;;;;;6.70;2.35;;;9.70;99.90;;;;;;4199568;28;20055;-86
2022/10/07 04:36:28;;;;;;;7.65;2.35;;;9.70;99.90;;;;;;4165957;28;20041;-86
2022/10/07 04:38:31;;;;;;;17.52;2.10;;;9.70;99.90;;;;;;4181779;28;20041;-86
2022/10/07 04:40:37;;;;;;;13.43;2.45;;;9.70;99.90;;;;;;4199756;28;20409;-85
2022/10/07 04:44:57;;;;;;;9.38;2.13;;;9.70;99.90;;;;;;4180825;28;20556;-84
2022/10/07 04:46:58;;;;;;;11.63;2.20;;;9.70;99.90;;;;;;4165223;28;20064;-86
2022/10/07 04:48:59;;;;;;;12.70;2.25;;;9.60;99.90;;;;;;4181289;28;20448;-85
2022/10/07 04:51:09;;;;;;;11.10;2.20;;;9.70;99.90;;;;;;4199366;28;20066;-85
2022/10/07 04:53:15;;;;;;;11.40;2.47;;;9.70;99.90;;;;;;4182238;28;20055;-86
2022/10/07 04:55:16;;;;;;;9.05;2.00;;;8.70;99.90;;;;;;4184153;28;20045;-86
2022/10/07 04:57:17;;;;;;;17.23;2.13;;;9.70;99.90;;;;;;4182676;28;20059;-84
2022/10/07 04:59:19;;;;;;;7.18;2.15;;;9.70;99.90;;;;;;4199570;28;20630;-85
2022/10/07 05:01:21;;;;;;;11.32;2.67;;;8.90;99.90;;;;;;4199958;28;20525;-86
2022/10/07 05:03:23;;;;;;;11.27;2.47;;;9.70;99.90;;;;;;4182425;28;20509;-85
2022/10/07 05:05:26;;;;;;;12.68;2.92;;;9.70;99.90;;;;;;4200533;28;20078;-85
2022/10/07 05:07:32;;;;;;;16.30;2.33;;;9.70;99.90;;;;;;4201169;28;20497;-86
2022/10/07 05:09:33;;;;;;;9.02;2.10;;;9.80;99.90;;;;;;4192137;28;20138;-84
2022/10/07 05:11:34;;;;;;;13.25;2.45;;;9.70;99.90;;;;;;4195097;28;20471;-85
2022/10/07 05:13:37;;;;;;;16.17;3.38;;;9.70;99.90;;;;;;4212231;28;20116;-85
2022/10/07 05:15:50;;;;;;;15.57;3.67;;;9.70;99.90;;;;;;4212889;28;20496;-85
2022/10/07 05:17:52;;;;;;;9.10;2.92;;;9.60;99.90;;;;;;4194907;28;20567;-84
2022/10/07 05:19:54;;;;;;;14.02;3.03;;;9.60;99.90;;;;;;4194797;28;20402;-85
2022/10/07 05:21:57;;;;;;;14.88;2.75;;;9.60;99.90;;;;;;4197328;28;20049;-85
2022/10/07 05:23:58;;;;;;;10.13;2.05;;;8.50;99.90;;;;;;4200638;28;20033;-87
2022/10/07 05:26:01;;;;;;;12.55;2.65;;;9.60;99.90;;;;;;4200117;28;20098;-86
2022/10/07 05:28:02;;;;;;;8.85;3.20;;;9.60;99.90;;;;;;4189113;28;20053;-87
2022/10/07 05:30:03;;;;;;;15.35;2.83;;;9.60;99.90;;;;;;4201070;28;20086;-86
2022/10/07 05:32:04;;;;;;;9.00;2.50;;;9.60;99.90;;;;;;4166759;28;20049;-87
2022/10/07 05:34:05;;;;;;;15.88;2.95;;;9.60;99.90;;;;;;4156908;28;20542;-86
2022/10/07 05:36:07;;;;;;;7.25;3.33;;;9.60;99.90;;;;;;4184457;28;20068;-87
2022/10/07 05:38:08;;;;;;;8.75;2.80;;;9.60;99.90;;;;;;4152489;28;20101;-87
2022/10/07 05:40:09;;;;;;;9.10;2.50;;;9.60;99.90;;;;;;4183251;28;20485;-87
2022/10/07 05:42:12;;;;;;;7.60;2.17;;;9.60;99.90;;;;;;4201110;28;20497;-87
2022/10/07 05:44:13;;;;;;;14.10;2.83;;;9.60;99.90;;;;;;4183697;28;20045;-86
2022/10/07 05:46:15;;;;;;;11.30;2.40;;;10.10;99.90;;;;;;4182060;28;20085;-87
2022/10/07 05:48:32;;;;;;;13.88;2.47;;;9.70;99.90;;;;;;4201247;28;20432;-86
2022/10/07 05:50:32;;;;;;;11.50;2.65;;;9.80;99.90;;;;;;4183181;28;20040;-87
2022/10/07 05:52:34;;;;;;;9.75;2.40;;;9.60;99.90;;;;;;4200726;28;20040;-86
2022/10/07 05:54:38;;;;;;;7.07;2.70;;;8.90;99.90;;;;;;4183129;28;20080;-86
2022/10/07 05:56:38;;;;;;;16.90;2.60;;;9.70;99.90;;;;;;4200506;28;20097;-87
2022/10/07 05:58:39;;;;;;;10.77;2.67;;;9.60;99.90;;;;;;4166565;28;20501;-86
2022/10/07 06:00:54;;;;;;;12.10;2.85;;;9.60;99.90;;;;;;4200047;28;20041;-87
2022/10/07 06:02:55;;;;;;;18.52;2.20;;;9.60;99.90;;;;;;4166082;28;20057;-84
2022/10/07 06:04:56;;;;;;;10.27;2.60;;;9.70;99.90;;;;;;4200461;28;20072;-86
2022/10/07 06:06:57;;;;;;;16.73;2.80;;;9.60;99.90;;;;;;4183272;28;20033;-85
2022/10/07 06:13:06;;;;;;;15.75;2.53;;;9.60;99.90;;;;;;4200878;28;20040;-86
2022/10/07 06:13:39;;;;;;;11.23;2.88;;;9.60;99.90;;;;;;4201150;28;20056;-86
2022/10/07 06:15:40;;;;;;;15.90;3.08;;;9.70;99.90;;;;;;4182859;28;20077;-87
2022/10/07 06:17:43;;;;;;;11.77;2.30;;;9.70;99.90;;;;;;4182976;28;20041;-86
2022/10/07 06:19:45;;;;;;;17.42;2.83;;;9.80;99.90;;;;;;4182427;28;20049;-87
2022/10/07 06:21:47;;;;;;;10.18;3.03;;;9.70;99.90;;;;;;4200219;28;20037;-86
2022/10/07 06:23:51;;;;;;;22.90;3.58;;;9.80;99.90;;;;;;4200213;28;20036;-86
2022/10/07 06:26:01;;;;;;;12.18;2.63;;;9.80;99.90;;;;;;4182205;28;20049;-86
2022/10/07 06:28:02;;;;;;;12.65;2.83;;;9.90;99.90;;;;;;4200531;28;20123;-87
2022/10/07 06:30:04;;;;;;;12.23;3.25;;;9.90;99.90;;;;;;4200040;28;20079;-87
2022/10/07 06:32:05;;;;;;;13.13;2.90;;;10.20;99.90;;;;;;4198143;28;20824;-86
2022/10/07 06:34:07;;;;;;;11.23;3.00;;;9.90;99.90;;;;;;4172586;28;20057;-85
2022/10/07 06:36:13;;;;;;;12.32;2.85;;;10.00;99.90;;;;;;4165821;28;20094;-85
2022/10/07 06:38:14;;;;;;;18.20;3.53;;;10.00;99.90;;;;;;4168951;28;20159;-84
2022/10/07 06:40:14;;;;;;;16.73;3.20;;;11.20;99.90;;;;;;4200366;28;20045;-85
2022/10/07 06:42:16;;;;;;;11.60;2.63;;;10.00;99.90;;;;;;4199884;28;20039;-85
2022/10/07 06:44:17;;;;;;;11.32;3.17;;;10.00;99.90;;;;;;4181685;28;20528;-85
2022/10/07 06:46:18;;;;;;;13.10;3.28;;;10.10;99.90;;;;;;4200022;28;20048;-84
2022/10/07 06:48:19;;;;;;;11.75;2.72;;;10.10;99.90;;;;;;4200146;28;20036;-84
2022/10/07 06:50:22;;;;;;;16.70;2.67;;;10.10;99.90;;;;;;4182322;28;20073;-85
2022/10/07 06:52:25;;;;;;;19.83;3.58;;;10.20;99.90;;;;;;4200390;28;20098;-85
2022/10/07 06:54:25;;;;;;;13.27;2.97;;;10.30;99.90;;;;;;4182937;28;20080;-85
2022/10/07 06:56:26;;;;;;;8.45;2.70;;;10.40;99.90;;;;;;4200939;28;20048;-85
2022/10/07 06:58:27;;;;;;;13.65;3.13;;;10.40;99.90;;;;;;4182678;28;20045;-85
2022/10/07 07:00:28;;;;;;;14.35;2.83;;;10.40;99.90;;;;;;4183025;28;20041;-85
2022/10/07 07:02:29;;;;;;;12.32;3.47;;;10.40;99.90;;;;;;4200350;28;20087;-85
2022/10/07 07:04:31;;;;;;;13.32;3.05;;;10.50;99.90;;;;;;4182350;28;20053;-85
2022/10/07 07:06:35;;;;;;;16.45;3.13;;;10.50;99.90;;;;;;4199398;28;20045;-85
2022/10/07 07:08:37;;;;;;;6.72;2.55;;;10.60;99.90;;;;;;4200029;28;20102;-87
2022/10/07 07:10:39;;;;;;;13.20;2.80;;;10.60;99.90;;;;;;4167369;28;20068;-88
2022/10/07 07:12:41;;;;;;;17.20;4.07;;;10.60;99.90;;;;;;4199891;28;20045;-88
2022/10/07 07:14:44;;;;;;;15.88;3.53;;;10.80;99.90;;;;;;4193645;28;20032;-89
2022/10/07 07:16:45;;;;;;;18.58;4.57;;;10.70;99.90;;;;;;4184347;28;20115;-89
2022/10/07 07:19:00;;;;;;;12.13;2.70;;;10.70;99.90;;;;;;4167997;28;20045;-88
2022/10/07 07:21:02;;;;;;;16.65;2.70;;;10.80;99.90;;;;;;4183755;28;20049;-85
2022/10/07 07:23:08;;;;;;;20.60;3.33;;;9.90;99.90;;;;;;4204543;28;20073;-85
2022/10/07 07:25:10;;;;;;;10.55;2.47;;;10.80;99.90;;;;;;4188096;28;20052;-86
2022/10/07 07:27:13;;;;;;;13.40;3.63;;;10.80;99.90;;;;;;4202747;28;20115;-86
2022/10/07 07:29:27;;;;;;;15.45;2.75;;;10.90;99.90;;;;;;4199861;28;20086;-95
2022/10/07 07:31:30;;;;;;;18.70;4.70;;;11.00;99.90;;;;;;4200956;28;20044;-87
2022/10/07 07:33:31;;;;;;;16.23;3.38;;;10.80;99.90;;;;;;4200152;28;20051;-87
2022/10/07 07:35:40;;;;;;;9.48;2.85;;;11.10;99.90;;;;;;4182945;28;20489;-87
2022/10/07 07:37:41;;;;;;;17.27;2.92;;;11.20;99.90;;;;;;4183073;28;20045;-87
2022/10/07 07:39:45;;;;;;;11.25;3.25;;;11.30;99.90;;;;;;4198751;28;20063;-86
2022/10/07 07:41:46;;;;;;;13.52;3.03;;;11.30;99.90;;;;;;4201436;28;20628;-87
2022/10/07 07:43:49;;;;;;;9.85;2.67;;;11.40;99.90;;;;;;4182426;28;20056;-85
2022/10/07 07:45:50;;;;;;;11.38;3.05;;;11.50;99.90;;;;;;4201063;28;20045;-86
2022/10/07 07:47:51;;;;;;;8.98;2.53;;;11.50;99.90;;;;;;4183933;28;20060;-85
2022/10/07 07:49:52;;;;;;;16.38;2.72;;;11.50;99.90;;;;;;4183498;28;20045;-86
2022/10/07 07:51:55;;;;;;;13.88;2.65;;;11.60;99.90;;;;;;4200657;28;20044;-86
2022/10/07 07:53:56;;;;;;;17.35;2.95;;;11.70;99.90;;;;;;4201510;28;20101;-86
2022/10/07 07:55:58;;;;;;;14.82;3.30;;;12.10;99.90;;;;;;4201704;28;20060;-88
2022/10/07 07:58:00;;;;;;;11.90;2.70;;;12.80;99.90;;;;;;4200374;28;20119;-87
2022/10/07 08:00:04;;;;;;;8.13;2.35;;;13.50;99.90;;;;;;4165506;28;20085;-87
2022/10/07 08:02:06;;;;;;;12.02;3.13;;;14.10;99.90;;;;;;4168522;28;20044;-87
2022/10/07 08:04:06;;;;;;;15.75;2.72;;;14.70;99.90;;;;;;4181978;28;20056;-86
2022/10/07 08:06:09;;;;;;;9.43;2.28;;;14.90;99.50;;;;;;4186014;28;20044;-87
2022/10/07 08:08:11;;;;;;;12.43;2.30;;;15.20;98.50;;;;;;4182265;28;20064;-87
2022/10/07 08:10:12;;;;;;;16.83;3.28;;;15.60;98.50;;;;;;4200432;28;20048;-87
2022/10/07 08:12:13;;;;;;;13.95;2.60;;;15.80;98.20;;;;;;4182740;28;20182;-88
2022/10/07 08:14:16;;;;;;;13.60;3.30;;;16.20;97.70;;;;;;4200076;28;20574;-87
2022/10/07 08:16:24;;;;;;;9.73;2.03;;;16.50;97.40;;;;;;4201411;28;20071;-89
2022/10/07 08:18:25;;;;;;;13.30;2.00;;;16.90;96.90;;;;;;4182382;28;20125;-87
2022/10/07 08:20:26;;;;;;;13.98;2.88;;;17.20;96.30;;;;;;4201427;28;20086;-88
2022/10/07 08:22:28;;;;;;;12.52;1.92;;;17.50;96.00;;;;;;4201699;28;20595;-89
2022/10/07 08:24:29;;;;;;;8.85;1.92;;;17.50;95.50;;;;;;4200792;28;20052;-86
2022/10/07 08:26:31;;;;;;;10.02;2.33;;;17.50;95.30;;;;;;4182841;28;20081;-88
2022/10/07 08:28:36;;;;;;;10.52;2.35;;;18.00;95.00;;;;;;4201138;28;20076;-87
2022/10/07 08:30:37;;;;;;;14.27;3.10;;;18.00;93.90;;;;;;4168471;28;20109;-88
2022/10/07 08:32:37;;;;;;;14.80;2.13;;;18.10;94.40;;;;;;4185094;28;20041;-86
2022/10/07 08:34:38;;;;;;;10.45;3.13;;;18.20;93.90;;;;;;4199420;28;20048;-86
2022/10/07 08:36:42;;;;;;;10.07;2.13;;;18.10;93.40;;;;;;4181534;28;20049;-87
2022/10/07 08:38:44;;;;;;;11.82;1.80;;;18.10;93.20;;;;;;4199162;28;20051;-87
2022/10/07 08:40:49;;;;;;;11.90;1.88;;;18.40;93.20;;;;;;4198331;28;20194;-87
2022/10/07 08:42:49;;;;;;;10.88;1.95;;;18.60;93.00;;;;;;4181055;28;20598;-87
2022/10/07 08:44:50;;;;;;;10.15;1.70;;;18.70;92.70;;;;;;4184194;28;20056;-87
2022/10/07 08:47:02;;;;;;;7.75;1.67;;;18.80;92.60;;;;;;4184386;28;20052;-88
2022/10/07 08:49:14;;;;;;;11.70;1.92;;;18.80;91.30;;;;;;4181864;28;20049;-86
2022/10/07 08:51:25;;;;;;;9.57;3.03;;;18.90;91.70;;;;;;4202007;28;20044;-86
2022/10/07 08:53:30;;;;;;;7.10;1.98;;;18.90;91.60;;;;;;4167904;28;20088;-88
2022/10/07 08:56:05;;;;;;;9.60;1.65;;;19.20;91.30;;;;;;4183984;28;20456;-86
2022/10/07 08:58:18;;;;;;;13.60;2.47;;;19.30;90.50;;;;;;4202118;28;20036;-87
2022/10/07 09:00:20;;;;;;;6.53;2.20;;;19.70;90.40;;;;;;4184065;28;20076;-88
2022/10/07 09:02:35;;;;;;;7.38;1.60;;;20.00;90.50;;;;;;4181982;28;20076;-89
2022/10/07 09:04:53;;;;;;;6.78;2.15;;;20.10;87.80;;;;;;4185942;28;20049;-89
2022/10/07 09:07:01;;;;;;;14.35;2.45;;;20.20;86.70;;;;;;4169305;28;20072;-88
2022/10/07 09:09:12;;;;;;;11.30;2.10;;;20.00;88.40;;;;;;4172677;28;20041;-88
2022/10/07 09:11:24;;;;;;;11.57;2.30;;;20.30;88.40;;;;;;4186395;28;20073;-90
2022/10/07 09:13:35;;;;;;;12.13;1.90;;;20.60;88.00;;;;;;4186606;28;20059;-89
2022/10/07 09:15:55;;;;;;;7.05;1.70;;;20.60;83.40;;;;;;4187876;28;20121;-90
2022/10/07 09:18:03;;;;;;;14.38;1.92;;;20.60;86.50;;;;;;4186880;28;20056;-89
2022/10/07 09:20:15;;;;;;;11.73;2.70;;;20.60;86.00;;;;;;4168418;28;20123;-89
2022/10/07 09:22:21;;;;;;;8.98;2.10;;;20.70;84.20;;;;;;4186544;28;20048;-88
2022/10/07 09:24:27;;;;;;;9.52;2.03;;;20.80;85.30;;;;;;4186702;28;20051;-89
2022/10/07 09:26:29;;;;;;;7.13;2.22;;;21.00;84.00;;;;;;4185444;28;20049;-89
2022/10/07 09:28:32;;;;;;;17.95;2.35;;;21.00;84.70;;;;;;4187354;28;20041;-90
2022/10/07 09:30:32;;;;;;;9.15;1.60;;;21.10;84.30;;;;;;4168424;28;20050;-91
2022/10/07 09:32:38;;;;;;;10.05;1.83;;;21.10;84.20;;;;;;4169318;28;20079;-90
2022/10/07 09:34:46;;;;;;;13.10;1.83;;;20.80;84.00;;;;;;4169613;28;20103;-90
2022/10/07 09:37:21;;;;;;;15.55;2.38;;;21.30;84.90;;;;;;4184938;28;21096;-89
2022/10/07 09:39:23;;;;;;;12.13;2.40;;;20.40;82.80;;;;;;4188435;28;20037;-90
2022/10/07 09:41:37;;;;;;;10.50;1.98;;;20.20;86.50;;;;;;4186719;28;20041;-90
2022/10/07 09:43:50;;;;;;;6.90;1.60;;;20.30;85.80;;;;;;4187292;28;20052;-89
2022/10/07 09:45:52;;;;;;;15.43;2.17;;;20.20;86.20;;;;;;4186345;28;20048;-88
2022/10/07 09:47:55;;;;;;;10.60;1.80;;;20.20;87.00;;;;;;4185275;28;20083;-89
2022/10/07 09:49:58;;;;;;;9.43;2.03;;;20.00;87.00;;;;;;4184521;28;20048;-88
2022/10/07 09:52:02;;;;;;;14.52;2.92;;;19.90;87.80;;;;;;4185445;28;20465;-87
2022/10/07 09:54:18;;;;;;;9.50;1.90;;;19.70;87.20;;;;;;4185069;28;20052;-87
2022/10/07 09:56:44;;;;;;;8.27;1.80;;;19.60;87.50;;;;;;4187265;28;20097;-88
2022/10/07 09:58:45;;;;;;;20.23;2.83;;;19.50;87.00;;;;;;4185813;28;20383;-87
2022/10/07 10:00:51;;;;;;;11.50;1.92;;;19.50;88.80;;;;;;4180248;28;20047;-88
2022/10/07 10:03:04;;;;;;;8.30;1.80;;;19.40;88.10;;;;;;4187613;28;20049;-88
2022/10/07 10:05:27;;;;;;;9.30;1.70;;;19.20;87.20;;;;;;4171093;28;20073;-87
2022/10/07 10:07:36;;;;;;;15.02;2.70;;;19.10;88.20;;;;;;4184026;28;20405;-89
2022/10/07 10:09:37;;;;;;;11.38;2.47;;;19.10;89.40;;;;;;4157945;28;20037;-90
2022/10/07 10:11:37;;;;;;;11.35;2.28;;;19.00;89.90;;;;;;4168560;28;20630;-88
2022/10/07 10:13:39;;;;;;;10.63;1.63;;;19.20;90.10;;;;;;4186557;28;20041;-87
2022/10/07 10:15:42;;;;;;;9.90;1.80;;;19.30;89.60;;;;;;4184990;28;20559;-89
2022/10/07 10:17:44;;;;;;;9.88;1.30;;;19.50;89.00;;;;;;4185323;28;20049;-88
2022/10/07 10:19:46;;;;;;;12.43;2.08;;;20.20;88.90;;;;;;4184304;28;20045;-89
2022/10/07 10:21:57;;;;;;;8.60;2.10;;;19.60;88.40;;;;;;4184234;28;20103;-88
2022/10/07 10:24:04;;;;;;;14.48;2.58;;;19.70;86.80;;;;;;4184009;28;20125;-86
2022/10/07 10:26:28;;;;;;;6.43;1.77;;;19.50;87.80;;;;;;4183594;28;20087;-87
2022/10/07 10:28:57;;;;;;;12.40;2.50;;;19.60;87.20;;;;;;4183387;28;20055;-86
2022/10/07 10:31:20;;;;;;;12.43;2.00;;;19.40;85.90;;;;;;4181050;28;20075;-85
2022/10/07 10:33:36;;;;;;;10.90;1.90;;;19.30;87.30;;;;;;4182609;28;20497;-87
2022/10/07 10:35:46;;;;;;;10.73;1.83;;;19.30;87.70;;;;;;4182202;28;20048;-86
2022/10/07 10:38:05;;;;;;;9.65;1.40;;;19.50;86.80;;;;;;4182069;28;20093;-86
2022/10/07 10:40:33;;;;;;;8.02;1.60;;;19.50;86.30;;;;;;4182201;28;20067;-87
2022/10/07 10:42:49;;;;;;;8.17;1.40;;;19.70;86.10;;;;;;4183101;28;20508;-86
2022/10/07 10:45:08;;;;;;;9.43;1.88;;;19.70;86.70;;;;;;4183064;28;20517;-86
2022/10/07 10:47:22;;;;;;;;;;;19.80;86.10;;;;;;4185081;28;20052;-87
2022/10/07 10:49:26;;;;;;;14.25;2.20;;;19.80;84.90;;;;;;4184320;28;19921;-86
2022/10/07 10:51:45;;;;;;;10.32;2.53;;;19.80;86.90;;;;;;4183197;28;20048;-85
2022/10/07 10:54:08;;;;;;;6.40;1.35;;;19.80;86.00;;;;;;4184085;28;20057;-86
2022/10/07 10:56:20;;;;;;;15.00;3.28;;;19.90;86.70;;;;;;4182897;28;20106;-86
2022/10/07 10:58:52;;;;;;;12.00;1.40;;;20.00;86.10;;;;;;4183184;28;20044;-86
2022/10/07 11:01:17;;;;;;;9.93;1.75;;;20.00;83.50;;;;;;4165850;28;20045;-88
2022/10/07 11:03:36;;;;;;;8.77;1.77;;;20.00;85.20;;;;;;4199295;28;20156;-87